Time;durP1;ratioP1;P1;durP2;ratioP2;P2;SDS_P1;SDS_P2;PMS_P1;PMS_P2;Temp;Humidity;BMP_temperature;BMP_pressure;BME280_temperature;BME280_humidity;BME280_pressure;Samples;Min_cycle;Max_cycle;Signal;HPM_P1;HPM_P2
2023/10/17 00:02:50;;;;;;;9.30;8.90;;;;;;;;;;5067266;28;20497;-64
2023/10/17 00:05:15;;;;;;;10.05;9.55;;;;;;;;;;5063803;28;20067;-63
2023/10/17 00:07:45;;;;;;;9.88;9.38;;;;;;;;;;5061392;28;20017;-63
2023/10/17 00:10:15;;;;;;;9.20;8.80;;;;;;;;;;5076088;28;20024;-63
2023/10/17 00:12:43;;;;;;;9.30;8.90;;;;;;;;;;5061871;28;20074;-63
2023/10/17 00:15:27;;;;;;;9.50;9.10;;;;;;;;;;5070159;28;20392;-62
2023/10/17 00:17:55;;;;;;;10.05;9.55;;;;;;;;;;5064005;28;20023;-62
2023/10/17 00:20:24;;;;;;;9.82;9.32;;;;;;;;;;5063695;28;20112;-62
2023/10/17 00:22:53;;;;;;;8.95;8.55;;;;;;;;;;5064920;28;20136;-62
2023/10/17 00:25:18;;;;;;;9.02;8.63;;;;;;;;;;5064746;28;20028;-62
2023/10/17 00:27:44;;;;;;;9.77;9.27;;;;;;;;;;5060839;28;20031;-63
2023/10/17 00:30:16;;;;;;;10.95;10.35;;;;;;;;;;5058457;28;20540;-63
2023/10/17 00:32:42;;;;;;;9.57;9.18;;;;;;;;;;5071041;28;20417;-63
2023/10/17 00:35:15;;;;;;;9.60;9.20;;;;;;;;;;5063738;28;20025;-63
2023/10/17 00:37:47;;;;;;;9.23;8.82;;;;;;;;;;5062613;28;20038;-63
2023/10/17 00:40:26;;;;;;;9.50;9.10;;;;;;;;;;5056798;28;20025;-63
2023/10/17 00:42:51;;;;;;;9.38;8.98;;;;;;;;;;5063635;28;20385;-63
2023/10/17 00:45:17;;;;;;;9.63;9.23;;;;;;;;;;5067247;28;20028;-63
2023/10/17 00:47:43;;;;;;;10.73;10.18;;;;;;;;;;5060538;28;20032;-63
2023/10/17 00:50:12;;;;;;;9.55;9.15;;;;;;;;;;5060653;28;20033;-64
2023/10/17 00:52:38;;;;;;;9.63;9.20;;;;;;;;;;5066531;28;20445;-64
2023/10/17 00:55:04;;;;;;;9.30;8.90;;;;;;;;;;5062688;28;20099;-62
2023/10/17 00:57:30;;;;;;;9.30;8.90;;;;;;;;;;5066422;28;20398;-63
2023/10/17 00:59:55;;;;;;;9.27;8.88;;;;;;;;;;5063385;28;20120;-63
2023/10/17 01:02:23;;;;;;;10.50;10.00;;;;;;;;;;5063128;28;20436;-62
2023/10/17 01:04:49;;;;;;;10.07;9.57;;;;;;;;;;5061423;28;20115;-63
2023/10/17 01:07:27;;;;;;;9.73;9.27;;;;;;;;;;5071372;28;20009;-62
2023/10/17 01:10:05;;;;;;;10.10;9.60;;;;;;;;;;5067710;28;20093;-62
2023/10/17 01:12:30;;;;;;;9.90;9.40;;;;;;;;;;5063130;28;20525;-64
2023/10/17 01:14:56;;;;;;;9.52;9.13;;;;;;;;;;5059098;28;20041;-63
2023/10/17 01:17:23;;;;;;;9.27;8.88;;;;;;;;;;5063699;28;20036;-64
2023/10/17 01:19:53;;;;;;;9.23;8.82;;;;;;;;;;5061669;28;20025;-62
2023/10/17 01:22:22;;;;;;;10.40;9.90;;;;;;;;;;5064597;28;20042;-64
2023/10/17 01:24:47;;;;;;;9.93;9.43;;;;;;;;;;5068804;28;20027;-63
2023/10/17 01:27:13;;;;;;;9.98;9.48;;;;;;;;;;5061306;28;20139;-63
2023/10/17 01:29:41;;;;;;;9.50;9.10;;;;;;;;;;5057197;28;20032;-64
2023/10/17 01:32:09;;;;;;;9.40;9.00;;;;;;;;;;5062326;28;20032;-63
2023/10/17 01:34:36;;;;;;;9.77;9.27;;;;;;;;;;5060259;28;20029;-62
2023/10/17 01:37:03;;;;;;;10.95;10.35;;;;;;;;;;5059110;28;20731;-62
2023/10/17 01:39:29;;;;;;;10.18;9.68;;;;;;;;;;5057622;28;20090;-62
2023/10/17 01:41:55;;;;;;;10.00;9.50;;;;;;;;;;5059113;28;20095;-63
2023/10/17 01:44:20;;;;;;;9.98;9.48;;;;;;;;;;5063467;28;20613;-63
2023/10/17 01:46:46;;;;;;;9.60;9.20;;;;;;;;;;5068259;28;20032;-63
2023/10/17 01:49:12;;;;;;;9.70;9.23;;;;;;;;;;5061952;28;20390;-63
2023/10/17 01:51:41;;;;;;;10.07;9.57;;;;;;;;;;5052725;28;20021;-63
2023/10/17 01:54:08;;;;;;;9.23;8.82;;;;;;;;;;5054954;28;20393;-63
2023/10/17 01:56:39;;;;;;;9.40;9.00;;;;;;;;;;5065131;28;20021;-63
2023/10/17 01:59:13;;;;;;;9.40;9.00;;;;;;;;;;5064088;28;20021;-63
2023/10/17 02:01:40;;;;;;;10.00;9.50;;;;;;;;;;5062552;28;20020;-63
2023/10/17 02:04:07;;;;;;;10.07;9.57;;;;;;;;;;5062199;28;20078;-63
2023/10/17 02:06:35;;;;;;;9.93;9.43;;;;;;;;;;5056939;28;20056;-63
2023/10/17 02:09:01;;;;;;;9.98;9.48;;;;;;;;;;5063329;28;20024;-64
2023/10/17 02:11:26;;;;;;;9.30;8.90;;;;;;;;;;5058194;28;20035;-63
2023/10/17 02:13:56;;;;;;;9.52;9.10;;;;;;;;;;5065368;28;20135;-64
2023/10/17 02:16:24;;;;;;;9.50;9.10;;;;;;;;;;5059895;28;20101;-62
2023/10/17 02:18:50;;;;;;;9.85;9.35;;;;;;;;;;5058707;28;20021;-63
2023/10/17 02:21:16;;;;;;;8.90;8.50;;;;;;;;;;5054329;28;20025;-63
2023/10/17 02:24:01;;;;;;;9.73;9.23;;;;;;;;;;5060116;28;20017;-63
2023/10/17 02:26:29;;;;;;;9.80;9.30;;;;;;;;;;5063338;28;20036;-63
2023/10/17 02:28:54;;;;;;;9.45;9.05;;;;;;;;;;5063537;28;20071;-63
2023/10/17 02:31:29;;;;;;;9.18;8.77;;;;;;;;;;5066557;28;20590;-64
2023/10/17 02:33:55;;;;;;;9.48;9.07;;;;;;;;;;5066593;28;20071;-64
2023/10/17 02:36:20;;;;;;;10.15;9.65;;;;;;;;;;5057103;28;20056;-63
2023/10/17 02:38:46;;;;;;;9.02;8.63;;;;;;;;;;5059680;28;20024;-63
2023/10/17 02:41:28;;;;;;;9.77;9.27;;;;;;;;;;5065174;28;20460;-62
2023/10/17 02:43:54;;;;;;;9.25;8.85;;;;;;;;;;5068125;28;20044;-62
2023/10/17 02:46:19;;;;;;;9.75;9.25;;;;;;;;;;5069072;28;20048;-62
2023/10/17 02:48:48;;;;;;;9.70;9.20;;;;;;;;;;5056671;28;20123;-62
2023/10/17 02:53:50;;;;;;;;;;;;;;;;;;5061334;28;20082;-63
2023/10/17 02:56:19;;;;;;;10.40;9.90;;;;;;;;;;5066344;28;19943;-61
2023/10/17 02:58:49;;;;;;;9.48;9.07;;;;;;;;;;5060335;28;20497;-62
2023/10/17 03:01:15;;;;;;;9.45;9.05;;;;;;;;;;5069444;28;20032;-63
2023/10/17 03:03:41;;;;;;;9.30;8.90;;;;;;;;;;5065892;28;20021;-63
2023/10/17 03:06:06;;;;;;;10.77;10.18;;;;;;;;;;5057131;28;20023;-65
2023/10/17 03:08:36;;;;;;;9.82;9.32;;;;;;;;;;5064023;28;20025;-62
2023/10/17 03:11:02;;;;;;;10.35;9.85;;;;;;;;;;5060248;28;20054;-64
2023/10/17 03:13:49;;;;;;;9.75;9.25;;;;;;;;;;5060882;28;20049;-63
2023/10/17 03:16:52;;;;;;;10.00;9.50;;;;;;;;;;5058728;28;20119;-63
2023/10/17 03:19:05;;;;;;;9.88;9.38;;;;;;;;;;5055639;28;20692;-63
2023/10/17 03:21:34;;;;;;;9.65;9.23;;;;;;;;;;5061288;28;20051;-63
2023/10/17 03:24:05;;;;;;;9.25;8.85;;;;;;;;;;5062808;28;20046;-63
2023/10/17 03:26:42;;;;;;;9.13;8.73;;;;;;;;;;5065273;28;20048;-63
2023/10/17 03:29:18;;;;;;;9.93;9.43;;;;;;;;;;5062784;28;20035;-63
2023/10/17 03:31:48;;;;;;;9.63;9.20;;;;;;;;;;5064638;28;20020;-64
2023/10/17 03:34:14;;;;;;;9.40;9.00;;;;;;;;;;5064728;28;20048;-62
2023/10/17 03:41:48;;;;;;;9.23;8.83;;;;;;;;;;5065338;28;20076;-62
2023/10/17 03:44:15;;;;;;;10.07;9.57;;;;;;;;;;5070161;28;20033;-63
2023/10/17 03:46:46;;;;;;;9.85;9.35;;;;;;;;;;5065649;28;20085;-63
2023/10/17 03:49:16;;;;;;;9.82;9.32;;;;;;;;;;5054676;28;20017;-64
2023/10/17 03:51:46;;;;;;;9.85;9.35;;;;;;;;;;5065748;28;20017;-62
2023/10/17 03:54:17;;;;;;;10.25;9.75;;;;;;;;;;5069509;28;20013;-63
2023/10/17 03:56:46;;;;;;;9.93;9.43;;;;;;;;;;5065859;28;20034;-64
2023/10/17 04:02:17;;;;;;;9.73;9.23;;;;;;;;;;5049357;28;20021;-64
2023/10/17 04:04:53;;;;;;;9.80;9.30;;;;;;;;;;5063825;28;20032;-63
2023/10/17 04:07:22;;;;;;;9.80;9.30;;;;;;;;;;5062951;28;20473;-63
2023/10/17 04:09:53;;;;;;;9.70;9.25;;;;;;;;;;5065006;28;20040;-64
2023/10/17 04:12:31;;;;;;;10.13;9.63;;;;;;;;;;5065942;28;20658;-63
2023/10/17 04:15:04;;;;;;;9.98;9.48;;;;;;;;;;5068190;28;20493;-63
2023/10/17 04:17:31;;;;;;;9.23;8.82;;;;;;;;;;5060522;28;20052;-62
2023/10/17 04:20:10;;;;;;;10.20;9.70;;;;;;;;;;5057418;28;20033;-63
2023/10/17 04:22:38;;;;;;;9.35;8.95;;;;;;;;;;5062546;28;20417;-61
2023/10/17 04:25:17;;;;;;;10.40;9.90;;;;;;;;;;5057997;28;20024;-61
2023/10/17 04:27:45;;;;;;;9.32;8.93;;;;;;;;;;5060894;28;20032;-62
2023/10/17 04:30:21;;;;;;;10.73;10.13;;;;;;;;;;5062459;28;20418;-68
2023/10/17 04:32:49;;;;;;;9.90;9.40;;;;;;;;;;5069385;28;20028;-61
2023/10/17 04:35:20;;;;;;;9.60;9.13;;;;;;;;;;5068467;28;20157;-62
2023/10/17 04:38:00;;;;;;;9.82;9.32;;;;;;;;;;5061395;28;20016;-62
2023/10/17 04:40:37;;;;;;;11.10;10.50;;;;;;;;;;5067057;28;20028;-62
2023/10/17 04:44:04;;;;;;;9.77;9.27;;;;;;;;;;5060801;28;20714;-61
2023/10/17 04:45:56;;;;;;;10.20;9.65;;;;;;;;;;5055476;28;20037;-62
2023/10/17 04:48:35;;;;;;;10.05;9.55;;;;;;;;;;5061933;28;20163;-63
2023/10/17 04:51:14;;;;;;;10.07;9.57;;;;;;;;;;5057895;28;20470;-62
2023/10/17 04:53:47;;;;;;;10.02;9.52;;;;;;;;;;5055408;28;20024;-63
2023/10/17 04:56:13;;;;;;;9.90;9.40;;;;;;;;;;5055390;28;20016;-63
2023/10/17 05:03:59;;;;;;;9.32;8.93;;;;;;;;;;5054572;28;20020;-64
2023/10/17 05:06:52;;;;;;;9.88;9.38;;;;;;;;;;5068795;28;20055;-63
2023/10/17 06:16:49;;;;;;;10.48;9.98;;;;;;;;;;5062623;28;20437;-64
2023/10/17 06:17:41;;;;;;;11.87;11.27;;;;;;;;;;5064188;28;20035;-62
2023/10/17 06:20:11;;;;;;;10.77;10.27;;;;;;;;;;5064164;28;20908;-63
2023/10/17 06:30:49;;;;;;;11.05;10.55;;;;;;;;;;5058751;28;20166;-61
2023/10/17 06:33:19;;;;;;;10.82;10.32;;;;;;;;;;5063950;28;20033;-61
2023/10/17 06:35:45;;;;;;;10.25;9.75;;;;;;;;;;5066183;28;20460;-63
2023/10/17 06:38:10;;;;;;;10.70;10.20;;;;;;;;;;5062624;28;20070;-62
2023/10/17 06:40:45;;;;;;;12.35;11.75;;;;;;;;;;5054084;28;20024;-63
2023/10/17 06:43:14;;;;;;;11.65;11.05;;;;;;;;;;5062136;28;20028;-62
2023/10/17 06:45:52;;;;;;;10.52;10.02;;;;;;;;;;5061201;28;20024;-64
2023/10/17 06:48:18;;;;;;;11.70;11.10;;;;;;;;;;5053055;28;20032;-63
2023/10/17 06:51:29;;;;;;;11.05;10.55;;;;;;;;;;5059478;28;20032;-63
2023/10/17 06:53:41;;;;;;;10.88;10.38;;;;;;;;;;5060891;28;20217;-62
2023/10/17 06:56:09;;;;;;;11.05;10.55;;;;;;;;;;5061347;28;20477;-62
2023/10/17 06:58:35;;;;;;;10.93;10.43;;;;;;;;;;5059199;28;20496;-61
2023/10/17 07:01:04;;;;;;;11.18;10.68;;;;;;;;;;5062280;28;20032;-63
2023/10/17 07:03:34;;;;;;;11.80;11.20;;;;;;;;;;5059395;28;20038;-64
2023/10/17 07:06:12;;;;;;;11.50;11.00;;;;;;;;;;5058058;28;20051;-62
2023/10/17 07:08:38;;;;;;;11.13;10.63;;;;;;;;;;5059214;28;20059;-63
2023/10/17 07:11:05;;;;;;;11.93;11.32;;;;;;;;;;5054949;28;20387;-63
2023/10/17 07:13:54;;;;;;;11.38;10.88;;;;;;;;;;5060691;28;20048;-63
2023/10/17 07:16:27;;;;;;;11.38;10.88;;;;;;;;;;5060660;28;20082;-64
2023/10/17 07:18:52;;;;;;;11.48;10.98;;;;;;;;;;5056582;28;20021;-63
2023/10/17 07:21:24;;;;;;;11.10;10.60;;;;;;;;;;5061262;28;20032;-64
2023/10/17 07:23:53;;;;;;;11.43;10.93;;;;;;;;;;5056395;28;20679;-64
2023/10/17 07:28:54;;;;;;;11.38;10.88;;;;;;;;;;5069378;28;20107;-63
2023/10/17 07:31:20;;;;;;;11.77;11.27;;;;;;;;;;5058736;28;20121;-64
2023/10/17 07:33:47;;;;;;;12.07;11.55;;;;;;;;;;5059215;28;20121;-63
2023/10/17 07:36:18;;;;;;;11.57;11.07;;;;;;;;;;5058215;28;20033;-63
2023/10/17 07:38:43;;;;;;;11.60;11.10;;;;;;;;;;5055047;28;20492;-63
2023/10/17 07:41:36;;;;;;;11.50;11.00;;;;;;;;;;5058061;28;20033;-64
2023/10/17 07:44:08;;;;;;;11.80;11.30;;;;;;;;;;5057991;28;20036;-67
2023/10/17 07:46:34;;;;;;;11.70;11.20;;;;;;;;;;5054606;28;21818;-64
2023/10/17 07:49:05;;;;;;;11.60;11.10;;;;;;;;;;5056102;28;20025;-64
2023/10/17 07:51:31;;;;;;;11.90;11.40;;;;;;;;;;5055441;28;20028;-63
2023/10/17 07:53:57;;;;;;;12.48;11.88;;;;;;;;;;5054880;28;20081;-65
2023/10/17 07:56:25;;;;;;;11.57;11.07;;;;;;;;;;5061963;28;20036;-65
2023/10/17 07:59:15;;;;;;;11.50;11.00;;;;;;;;;;5063241;28;20033;-64
2023/10/17 08:01:42;;;;;;;12.18;11.68;;;;;;;;;;5055429;28;20055;-63
2023/10/17 08:04:17;;;;;;;12.07;11.57;;;;;;;;;;5054448;28;20789;-62
2023/10/17 08:06:43;;;;;;;11.50;11.00;;;;;;;;;;5053276;28;20049;-63
2023/10/17 08:09:24;;;;;;;12.90;12.30;;;;;;;;;;5059308;28;20025;-63
2023/10/17 08:11:59;;;;;;;12.05;11.55;;;;;;;;;;5056071;28;20029;-63
2023/10/17 08:14:31;;;;;;;12.90;12.30;;;;;;;;;;5051754;28;20045;-63
2023/10/17 08:16:58;;;;;;;11.88;11.38;;;;;;;;;;5053580;28;20373;-64
2023/10/17 08:19:23;;;;;;;12.15;11.65;;;;;;;;;;5058098;28;20028;-66
2023/10/17 08:28:13;;;;;;;11.93;11.43;;;;;;;;;;5057736;28;20036;-64
2023/10/17 08:30:01;;;;;;;;;;;;;;;;;;5051894;28;20062;-63
2023/10/17 08:34:59;;;;;;;12.68;12.07;;;;;;;;;;5059652;28;20033;-64
2023/10/17 08:37:29;;;;;;;12.27;11.70;;;;;;;;;;5065375;28;20033;-65
2023/10/17 08:39:56;;;;;;;11.73;11.23;;;;;;;;;;5060129;28;20115;-65
2023/10/17 08:42:31;;;;;;;11.57;11.07;;;;;;;;;;5061949;28;20124;-65
2023/10/17 08:44:56;;;;;;;;;;;;;;;;;;5063098;28;20028;-64
2023/10/17 08:47:30;;;;;;;11.63;11.13;;;;;;;;;;5057213;28;19909;-63
2023/10/17 08:50:00;;;;;;;;;;;;;;;;;;5062709;28;20049;-63
2023/10/17 08:52:34;;;;;;;11.60;11.10;;;;;;;;;;5057066;28;20381;-66
2023/10/17 08:55:02;;;;;;;12.73;12.13;;;;;;;;;;5059623;28;20032;-64
2023/10/17 08:57:28;;;;;;;11.50;11.00;;;;;;;;;;5060093;28;20583;-65
2023/10/17 09:04:53;;;;;;;12.05;11.55;;;;;;;;;;5056551;28;20070;-65
2023/10/17 09:07:42;;;;;;;11.57;11.07;;;;;;;;;;5057320;28;20123;-63
2023/10/17 09:10:17;;;;;;;11.98;11.48;;;;;;;;;;5054086;28;20573;-63
2023/10/17 09:13:14;;;;;;;11.95;11.45;;;;;;;;;;5056600;28;20048;-64
2023/10/17 09:15:30;;;;;;;11.60;11.10;;;;;;;;;;5061991;28;20056;-64
2023/10/17 09:18:08;;;;;;;11.63;11.13;;;;;;;;;;5057776;28;20055;-62
2023/10/17 09:20:39;;;;;;;11.52;11.02;;;;;;;;;;5060201;28;20029;-65
2023/10/17 09:23:21;;;;;;;11.82;11.32;;;;;;;;;;5064746;28;20012;-63
2023/10/17 09:25:52;;;;;;;12.25;11.65;;;;;;;;;;5061099;28;22069;-64
2023/10/17 09:28:19;;;;;;;11.45;10.95;;;;;;;;;;5062639;28;20039;-64
2023/10/17 09:30:56;;;;;;;11.77;11.25;;;;;;;;;;5058594;28;20101;-66
2023/10/17 09:33:30;;;;;;;12.32;11.73;;;;;;;;;;5061514;28;20440;-65
2023/10/17 09:36:00;;;;;;;11.95;11.38;;;;;;;;;;5063578;28;20407;-66
2023/10/17 09:38:29;;;;;;;12.02;11.43;;;;;;;;;;5062250;28;20063;-64
2023/10/17 09:40:57;;;;;;;12.00;11.40;;;;;;;;;;5067009;28;20811;-64
2023/10/17 09:43:22;;;;;;;11.73;11.23;;;;;;;;;;5059590;28;20489;-63
2023/10/17 09:45:52;;;;;;;12.30;11.70;;;;;;;;;;5065044;28;20036;-63
2023/10/17 09:48:21;;;;;;;12.48;11.88;;;;;;;;;;5062202;28;20015;-62
2023/10/17 09:50:47;;;;;;;11.40;10.90;;;;;;;;;;5067635;28;20043;-63
2023/10/17 09:53:12;;;;;;;11.93;11.35;;;;;;;;;;5057586;28;20477;-64
2023/10/17 09:55:38;;;;;;;12.05;11.48;;;;;;;;;;5065506;28;20117;-63
2023/10/17 09:58:08;;;;;;;12.13;11.52;;;;;;;;;;5064553;28;20063;-63
2023/10/17 10:00:36;;;;;;;12.23;11.63;;;;;;;;;;5058887;28;20543;-64
2023/10/17 10:03:03;;;;;;;12.70;12.10;;;;;;;;;;5059570;28;21906;-64
2023/10/17 10:05:32;;;;;;;11.45;10.95;;;;;;;;;;5060282;28;20836;-63
2023/10/17 10:08:21;;;;;;;11.57;11.07;;;;;;;;;;5059660;28;20028;-62
2023/10/17 10:10:51;;;;;;;12.15;11.55;;;;;;;;;;5058925;28;20024;-63
2023/10/17 10:13:17;;;;;;;11.60;11.10;;;;;;;;;;5060727;28;20144;-62
2023/10/17 10:15:52;;;;;;;11.63;11.13;;;;;;;;;;5059793;28;20115;-63
2023/10/17 10:18:40;;;;;;;12.02;11.43;;;;;;;;;;5061614;28;20043;-65
2023/10/17 10:21:07;;;;;;;12.27;11.68;;;;;;;;;;5057567;28;20032;-66
2023/10/17 10:23:36;;;;;;;12.30;11.70;;;;;;;;;;5059123;28;20116;-64
2023/10/17 10:26:10;;;;;;;11.65;11.15;;;;;;;;;;5058691;28;20025;-63
2023/10/17 10:28:36;;;;;;;;;;;;;;;;;;5058870;28;20109;-65
2023/10/17 10:31:29;;;;;;;12.15;11.55;;;;;;;;;;5061162;28;19974;-67
2023/10/17 10:33:55;;;;;;;15.55;14.75;;;;;;;;;;5050426;28;20028;-63
2023/10/17 10:36:24;;;;;;;11.02;10.52;;;;;;;;;;5067002;28;20525;-62
2023/10/17 10:38:50;;;;;;;11.85;11.32;;;;;;;;;;5056315;28;20102;-63
2023/10/17 10:41:15;;;;;;;11.55;11.05;;;;;;;;;;5058701;28;20163;-62
2023/10/17 10:43:41;;;;;;;13.18;12.55;;;;;;;;;;5057322;28;20859;-63
2023/10/17 10:46:10;;;;;;;11.32;10.82;;;;;;;;;;5054703;28;20062;-62
2023/10/17 10:48:38;;;;;;;12.50;11.90;;;;;;;;;;5056469;28;20020;-63
2023/10/17 10:51:04;;;;;;;11.70;11.20;;;;;;;;;;5062053;28;20021;-64
2023/10/17 10:53:36;;;;;;;15.25;14.45;;;;;;;;;;5051160;28;20788;-66
2023/10/17 10:56:02;;;;;;;11.50;11.00;;;;;;;;;;5054608;28;20665;-62
2023/10/17 10:58:34;;;;;;;12.00;11.40;;;;;;;;;;5060389;28;20035;-63
2023/10/17 11:01:01;;;;;;;11.57;11.07;;;;;;;;;;5061292;28;20024;-63
2023/10/17 11:03:26;;;;;;;11.65;11.13;;;;;;;;;;5067154;28;20020;-62
2023/10/17 11:05:54;;;;;;;11.02;10.52;;;;;;;;;;5065041;28;20027;-63
2023/10/17 11:08:22;;;;;;;13.48;12.77;;;;;;;;;;5054006;28;25258;-61
2023/10/17 11:10:47;;;;;;;11.65;11.15;;;;;;;;;;5059180;28;20033;-62
2023/10/17 11:13:13;;;;;;;12.05;11.45;;;;;;;;;;5055561;28;20055;-61
2023/10/17 11:15:43;;;;;;;12.55;11.95;;;;;;;;;;5060331;28;20020;-63
2023/10/17 11:18:09;;;;;;;11.88;11.30;;;;;;;;;;5053467;28;20017;-63
2023/10/17 11:20:43;;;;;;;12.45;11.85;;;;;;;;;;5053831;28;20028;-64
2023/10/17 11:23:13;;;;;;;13.55;12.85;;;;;;;;;;5055647;28;20025;-64
2023/10/17 11:25:40;;;;;;;11.63;11.13;;;;;;;;;;5060390;28;20035;-63
2023/10/17 11:28:08;;;;;;;12.27;11.68;;;;;;;;;;5063368;28;21816;-62
2023/10/17 11:30:42;;;;;;;11.65;11.15;;;;;;;;;;5061159;28;20029;-65
2023/10/17 11:33:11;;;;;;;11.52;11.02;;;;;;;;;;5056057;28;20036;-64
2023/10/17 11:35:37;;;;;;;13.20;12.55;;;;;;;;;;5062746;28;20215;-63
2023/10/17 11:38:03;;;;;;;12.45;11.85;;;;;;;;;;5051986;28;20028;-64
2023/10/17 11:40:54;;;;;;;12.57;11.98;;;;;;;;;;5052449;28;20036;-63
2023/10/17 11:43:18;;;;;;;12.50;11.90;;;;;;;;;;5051256;28;20909;-63
2023/10/17 11:45:44;;;;;;;13.40;12.70;;;;;;;;;;5049155;28;20389;-65
2023/10/17 11:48:26;;;;;;;12.85;12.25;;;;;;;;;;5044717;28;20716;-64
2023/10/17 11:51:02;;;;;;;12.30;11.70;;;;;;;;;;5047215;28;21844;-61
2023/10/17 11:53:28;;;;;;;11.75;11.25;;;;;;;;;;5049911;28;20169;-65
2023/10/17 11:55:55;;;;;;;13.32;12.70;;;;;;;;;;5046315;28;20158;-63
2023/10/17 11:58:29;;;;;;;11.65;11.15;;;;;;;;;;5050039;28;20028;-64
2023/10/17 12:00:54;;;;;;;11.82;11.25;;;;;;;;;;5053895;28;20476;-64
2023/10/17 12:03:20;;;;;;;11.00;10.50;;;;;;;;;;5064348;28;20059;-65
2023/10/17 12:05:46;;;;;;;11.48;10.98;;;;;;;;;;5060234;28;20012;-66
2023/10/17 12:08:21;;;;;;;11.65;11.15;;;;;;;;;;5065129;28;20024;-64
2023/10/17 12:10:49;;;;;;;11.77;11.20;;;;;;;;;;5057788;28;20077;-64
2023/10/17 12:13:17;;;;;;;12.05;11.45;;;;;;;;;;5066240;28;20059;-64
2023/10/17 12:15:43;;;;;;;11.63;11.13;;;;;;;;;;5063062;28;20043;-64
2023/10/17 12:18:08;;;;;;;11.35;10.85;;;;;;;;;;5057430;28;20501;-65
2023/10/17 12:20:40;;;;;;;12.10;11.50;;;;;;;;;;5061340;28;20104;-63
2023/10/17 12:23:08;;;;;;;12.57;11.98;;;;;;;;;;5066251;28;20013;-61
2023/10/17 12:25:42;;;;;;;12.45;11.85;;;;;;;;;;5057774;28;20217;-79
2023/10/17 12:28:07;;;;;;;11.43;10.93;;;;;;;;;;5049430;28;20031;-80
2023/10/17 12:30:39;;;;;;;12.68;12.07;;;;;;;;;;5049608;28;20036;-82
2023/10/17 12:33:06;;;;;;;12.68;12.07;;;;;;;;;;5048712;28;20024;-78
2023/10/17 12:35:31;;;;;;;11.77;11.20;;;;;;;;;;5051647;28;20037;-79
2023/10/17 12:38:14;;;;;;;11.63;11.13;;;;;;;;;;5066233;28;20032;-82
2023/10/17 12:40:42;;;;;;;12.25;11.65;;;;;;;;;;5064412;28;20051;-82
2023/10/17 12:43:11;;;;;;;11.75;11.25;;;;;;;;;;5076893;28;20481;-81
2023/10/17 12:45:38;;;;;;;10.90;10.40;;;;;;;;;;5068218;28;20063;-81
2023/10/17 12:48:05;;;;;;;11.40;10.90;;;;;;;;;;5063461;28;20115;-81
2023/10/17 12:50:33;;;;;;;11.18;10.68;;;;;;;;;;5061470;28;20082;-81
2023/10/17 12:53:01;;;;;;;11.60;11.10;;;;;;;;;;5067128;28;20385;-82
2023/10/17 12:55:30;;;;;;;11.98;11.38;;;;;;;;;;5062062;28;20029;-81
2023/10/17 12:57:57;;;;;;;11.43;10.93;;;;;;;;;;5067672;28;20811;-79
2023/10/17 13:00:25;;;;;;;11.93;11.32;;;;;;;;;;5059984;28;20039;-76
2023/10/17 13:02:52;;;;;;;11.07;10.57;;;;;;;;;;5063111;28;20020;-77
2023/10/17 13:05:20;;;;;;;12.07;11.48;;;;;;;;;;5061547;28;20020;-80
2023/10/17 13:07:45;;;;;;;11.38;10.88;;;;;;;;;;5060564;28;20192;-80
2023/10/17 13:10:12;;;;;;;11.75;11.23;;;;;;;;;;5073432;28;20623;-82
2023/10/17 13:12:37;;;;;;;11.07;10.57;;;;;;;;;;5058619;28;20040;-79
2023/10/17 13:15:08;;;;;;;11.50;11.00;;;;;;;;;;5067747;28;20075;-80
2023/10/17 13:17:35;;;;;;;12.10;11.50;;;;;;;;;;5061204;28;20032;-81
2023/10/17 13:20:07;;;;;;;11.60;11.10;;;;;;;;;;5062736;28;20439;-79
2023/10/17 13:22:37;;;;;;;11.60;11.10;;;;;;;;;;5060073;28;20039;-80
2023/10/17 13:25:03;;;;;;;11.38;10.88;;;;;;;;;;5061445;28;20098;-77
2023/10/17 13:27:28;;;;;;;11.15;10.65;;;;;;;;;;5060169;28;20052;-81
2023/10/17 13:29:54;;;;;;;11.80;11.20;;;;;;;;;;5056072;28;20028;-81
2023/10/17 13:32:20;;;;;;;12.13;11.52;;;;;;;;;;5058529;28;20028;-80
2023/10/17 13:34:46;;;;;;;12.57;11.98;;;;;;;;;;5064617;28;20482;-82
2023/10/17 13:37:13;;;;;;;11.18;10.68;;;;;;;;;;5075992;28;20050;-80
2023/10/17 13:39:41;;;;;;;11.55;11.02;;;;;;;;;;5071313;28;20025;-86
2023/10/17 13:42:06;;;;;;;11.50;11.00;;;;;;;;;;5061645;28;20036;-80
2023/10/17 13:44:34;;;;;;;11.43;10.93;;;;;;;;;;5067832;28;20016;-80
2023/10/17 13:47:00;;;;;;;11.63;11.13;;;;;;;;;;5068752;28;20025;-78
2023/10/17 13:49:27;;;;;;;12.05;11.45;;;;;;;;;;5054523;28;20028;-78
2023/10/17 13:51:54;;;;;;;11.55;11.02;;;;;;;;;;5090845;28;20029;-77
2023/10/17 13:54:19;;;;;;;11.93;11.32;;;;;;;;;;5061287;28;20029;-80
2023/10/17 13:56:44;;;;;;;11.57;11.05;;;;;;;;;;5063279;28;20530;-78
2023/10/17 13:59:13;;;;;;;12.07;11.48;;;;;;;;;;5066016;28;20054;-79
2023/10/17 14:01:42;;;;;;;11.88;11.27;;;;;;;;;;5064141;28;20032;-78
2023/10/17 14:04:09;;;;;;;12.30;11.70;;;;;;;;;;5053899;28;20103;-64
2023/10/17 14:06:38;;;;;;;12.48;11.88;;;;;;;;;;5052171;28;20580;-64
2023/10/17 14:09:03;;;;;;;12.15;11.55;;;;;;;;;;5053897;28;20021;-62
2023/10/17 14:11:29;;;;;;;11.98;11.38;;;;;;;;;;5053585;28;20205;-61
2023/10/17 14:13:54;;;;;;;11.50;11.00;;;;;;;;;;5050998;28;20041;-61
2023/10/17 14:16:23;;;;;;;11.45;10.95;;;;;;;;;;5056269;28;20024;-61
2023/10/17 14:19:03;;;;;;;11.80;11.20;;;;;;;;;;5054627;28;20056;-61
2023/10/17 14:24:06;;;;;;;12.40;11.80;;;;;;;;;;5051743;28;20424;-61
2023/10/17 14:26:32;;;;;;;11.73;11.18;;;;;;;;;;5055383;28;20028;-62
2023/10/17 14:29:00;;;;;;;11.95;11.35;;;;;;;;;;5061780;28;20028;-63
2023/10/17 14:31:25;;;;;;;11.73;11.13;;;;;;;;;;5056063;28;20025;-62
2023/10/17 14:33:51;;;;;;;11.70;11.15;;;;;;;;;;5057655;28;20029;-62
2023/10/17 14:36:17;;;;;;;11.40;10.90;;;;;;;;;;5058357;28;20157;-62
2023/10/17 14:38:42;;;;;;;13.27;12.57;;;;;;;;;;5062838;28;20032;-62
2023/10/17 14:41:08;;;;;;;12.63;12.02;;;;;;;;;;5058711;28;20028;-61
2023/10/17 14:43:35;;;;;;;12.50;11.90;;;;;;;;;;5057804;28;20112;-63
2023/10/17 14:46:01;;;;;;;12.73;12.13;;;;;;;;;;5060853;28;20051;-62
2023/10/17 14:48:26;;;;;;;11.20;10.70;;;;;;;;;;5065562;28;20544;-61
2023/10/17 14:50:52;;;;;;;12.00;11.40;;;;;;;;;;5057849;28;20504;-62
2023/10/17 14:53:19;;;;;;;12.63;12.02;;;;;;;;;;5054425;28;20125;-63
2023/10/17 14:55:46;;;;;;;12.30;11.70;;;;;;;;;;5060192;28;20048;-62
2023/10/17 14:58:11;;;;;;;11.73;11.13;;;;;;;;;;5062100;28;20542;-61
2023/10/17 15:00:37;;;;;;;11.75;11.15;;;;;;;;;;5061784;28;20025;-62
2023/10/17 15:03:03;;;;;;;12.15;11.55;;;;;;;;;;5059525;28;20020;-60
2023/10/17 15:05:30;;;;;;;12.63;12.02;;;;;;;;;;5053007;28;20033;-62
2023/10/17 15:07:56;;;;;;;11.43;10.90;;;;;;;;;;5059978;28;20048;-63
2023/10/17 15:10:22;;;;;;;11.65;11.05;;;;;;;;;;5055893;28;20032;-64
2023/10/17 15:12:50;;;;;;;11.73;11.13;;;;;;;;;;5054288;28;20209;-63
2023/10/17 15:15:15;;;;;;;12.05;11.45;;;;;;;;;;5060548;28;20032;-63
2023/10/17 15:17:41;;;;;;;11.77;11.18;;;;;;;;;;5061312;28;20039;-62
2023/10/17 15:20:11;;;;;;;12.30;11.70;;;;;;;;;;5055980;28;20029;-62
2023/10/17 15:22:38;;;;;;;11.57;10.98;;;;;;;;;;5060878;28;20656;-64
2023/10/17 15:25:04;;;;;;;11.80;11.20;;;;;;;;;;5062858;28;20573;-62
2023/10/17 15:27:29;;;;;;;12.10;11.50;;;;;;;;;;5054413;28;20025;-63
2023/10/17 15:29:54;;;;;;;12.13;11.52;;;;;;;;;;5059429;28;20588;-63
2023/10/17 15:32:19;;;;;;;11.60;11.00;;;;;;;;;;5054144;28;20138;-63
2023/10/17 15:34:46;;;;;;;11.70;11.10;;;;;;;;;;5063904;28;20032;-63
2023/10/17 15:37:15;;;;;;;10.93;10.43;;;;;;;;;;5055086;28;20040;-61
2023/10/17 15:39:41;;;;;;;11.20;10.70;;;;;;;;;;5062549;28;20385;-61
2023/10/17 15:42:06;;;;;;;11.00;10.50;;;;;;;;;;5067922;28;20019;-63
2023/10/17 15:44:34;;;;;;;11.55;10.95;;;;;;;;;;5064529;28;20081;-62
2023/10/17 15:46:59;;;;;;;11.02;10.52;;;;;;;;;;5063946;28;20075;-62
2023/10/17 15:49:25;;;;;;;11.25;10.70;;;;;;;;;;5061907;28;20096;-61
2023/10/17 15:51:50;;;;;;;10.48;9.98;;;;;;;;;;5066269;28;20025;-61
2023/10/17 15:54:16;;;;;;;11.50;10.90;;;;;;;;;;5064866;28;20020;-62
2023/10/17 15:56:44;;;;;;;11.10;10.60;;;;;;;;;;5066331;28;20035;-62
2023/10/17 15:59:10;;;;;;;10.68;10.18;;;;;;;;;;5062646;28;20103;-61
2023/10/17 16:01:36;;;;;;;10.52;10.02;;;;;;;;;;5062935;28;20564;-62
2023/10/17 16:04:01;;;;;;;11.00;10.50;;;;;;;;;;5062146;28;20036;-62
2023/10/17 16:06:26;;;;;;;11.25;10.70;;;;;;;;;;5054372;28;20029;-62
2023/10/17 16:08:52;;;;;;;10.98;10.48;;;;;;;;;;5057744;28;20073;-61
2023/10/17 16:11:19;;;;;;;11.10;10.60;;;;;;;;;;5061413;28;20013;-61
2023/10/17 16:13:45;;;;;;;10.55;10.05;;;;;;;;;;5059041;28;20680;-62
2023/10/17 16:16:11;;;;;;;10.75;10.25;;;;;;;;;;5058640;28;20119;-61
2023/10/17 16:18:37;;;;;;;11.30;10.73;;;;;;;;;;5058029;28;20025;-60
2023/10/17 16:21:05;;;;;;;11.82;11.23;;;;;;;;;;5065903;28;20067;-65
2023/10/17 16:23:30;;;;;;;11.10;10.60;;;;;;;;;;5067017;28;20028;-61
2023/10/17 16:25:58;;;;;;;11.77;11.18;;;;;;;;;;5068657;28;20115;-61
2023/10/17 16:28:24;;;;;;;10.95;10.45;;;;;;;;;;5064810;28;20028;-62